createdAt,value
2023-03-11T00:00:07.338Z,625.00
2023-03-11T00:00:37.345Z,626.00
2023-03-11T00:01:07.411Z,627.00
2023-03-11T00:01:37.445Z,626.00
2023-03-11T00:02:07.519Z,625.00
2023-03-11T00:02:37.529Z,627.00
2023-03-11T00:03:07.548Z,625.00
2023-03-11T00:03:37.643Z,627.00
2023-03-11T00:04:07.635Z,624.00
2023-03-11T00:04:37.779Z,629.00
2023-03-11T00:05:07.792Z,624.00
2023-03-11T00:05:37.863Z,626.00
2023-03-11T00:06:07.772Z,625.00
2023-03-11T00:06:37.780Z,621.00
2023-03-11T00:07:07.774Z,626.00
2023-03-11T00:07:37.784Z,625.00
2023-03-11T00:08:07.799Z,624.00
2023-03-11T00:08:37.801Z,624.00
2023-03-11T00:09:07.819Z,623.00
2023-03-11T00:09:37.815Z,628.00
2023-03-11T00:10:07.813Z,625.00
2023-03-11T00:10:37.820Z,625.00
2023-03-11T00:11:07.838Z,625.00
2023-03-11T00:11:37.844Z,624.00
2023-03-11T00:12:07.841Z,625.00
2023-03-11T00:12:37.890Z,626.00
2023-03-11T00:13:07.891Z,628.00
2023-03-11T00:13:37.897Z,625.00
2023-03-11T00:14:07.978Z,626.00
2023-03-11T00:14:38.066Z,626.00
2023-03-11T00:15:08.174Z,628.00
2023-03-11T00:15:38.246Z,625.00
2023-03-11T00:16:08.331Z,626.00
2023-03-11T00:16:38.525Z,625.00
2023-03-11T00:17:08.480Z,626.00
2023-03-11T00:17:38.570Z,622.00
2023-03-11T00:18:08.602Z,621.00
2023-03-11T00:18:38.699Z,621.00
2023-03-11T00:19:08.782Z,622.00
2023-03-11T00:19:38.885Z,621.00
2023-03-11T00:20:08.996Z,619.00
2023-03-11T00:20:39.080Z,623.00
2023-03-11T00:21:09.150Z,621.00
2023-03-11T00:21:39.241Z,621.00
2023-03-11T00:22:09.333Z,622.00
2023-03-11T00:22:39.410Z,619.00
2023-03-11T00:23:09.523Z,617.00
2023-03-11T00:23:39.502Z,619.00
2023-03-11T00:24:09.501Z,617.00
2023-03-11T00:24:39.520Z,614.00
2023-03-11T00:25:09.525Z,618.00
2023-03-11T00:25:39.546Z,620.00
2023-03-11T00:26:09.547Z,619.00
2023-03-11T00:26:39.553Z,618.00
2023-03-11T00:27:09.589Z,618.00
2023-03-11T00:27:39.585Z,616.00
2023-03-11T00:28:09.630Z,620.00
2023-03-11T00:28:39.618Z,620.00
2023-03-11T00:29:09.637Z,619.00
2023-03-11T00:29:39.656Z,623.00
2023-03-11T00:30:09.648Z,621.00
2023-03-11T00:30:39.723Z,622.00
2023-03-11T00:31:09.766Z,624.00
2023-03-11T00:31:39.816Z,622.00
2023-03-11T00:32:09.823Z,624.00
2023-03-11T00:32:39.930Z,624.00
2023-03-11T00:33:09.949Z,622.00
2023-03-11T00:33:39.967Z,620.00
2023-03-11T00:34:09.976Z,618.00
2023-03-11T00:34:40.011Z,619.00
2023-03-11T00:35:10.007Z,618.00
2023-03-11T00:35:40.070Z,618.00
2023-03-11T00:36:10.082Z,616.00
2023-03-11T00:36:40.088Z,618.00
2023-03-11T00:37:10.093Z,617.00
2023-03-11T00:37:40.150Z,616.00
2023-03-11T00:38:10.173Z,617.00
2023-03-11T00:38:40.187Z,619.00
2023-03-11T00:39:10.189Z,621.00
2023-03-11T00:39:40.213Z,614.00
2023-03-11T00:40:10.217Z,612.00
2023-03-11T00:40:40.238Z,614.00
2023-03-11T00:41:10.260Z,612.00
2023-03-11T00:41:40.261Z,614.00
2023-03-11T00:42:10.267Z,613.00
2023-03-11T00:42:40.294Z,616.00
2023-03-11T00:43:10.309Z,614.00
2023-03-11T00:43:40.319Z,616.00
2023-03-11T00:44:10.323Z,615.00
2023-03-11T00:44:40.329Z,616.00
2023-03-11T00:45:10.347Z,616.00
2023-03-11T00:45:40.362Z,617.00
2023-03-11T00:46:10.382Z,617.00
2023-03-11T00:46:40.384Z,613.00
2023-03-11T00:47:10.386Z,624.00
2023-03-11T00:47:40.399Z,616.00
2023-03-11T00:48:10.407Z,612.00
2023-03-11T00:48:40.423Z,614.00
2023-03-11T00:49:10.420Z,618.00
2023-03-11T00:49:40.430Z,618.00
2023-03-11T00:50:10.453Z,616.00
2023-03-11T00:50:40.465Z,614.00
2023-03-11T00:51:10.487Z,615.00
2023-03-11T00:51:40.469Z,614.00
2023-03-11T00:52:10.475Z,612.00
2023-03-11T00:52:40.495Z,611.00
2023-03-11T00:53:10.563Z,611.00
2023-03-11T00:53:40.557Z,612.00
2023-03-11T00:54:10.559Z,613.00
2023-03-11T00:54:40.574Z,612.00
2023-03-11T00:55:10.578Z,611.00
2023-03-11T00:55:40.596Z,610.00
2023-03-11T00:56:10.633Z,611.00
2023-03-11T00:56:40.627Z,610.00
2023-03-11T00:57:10.629Z,608.00
2023-03-11T00:57:40.631Z,608.00
2023-03-11T00:58:10.656Z,609.00
2023-03-11T00:58:40.677Z,610.00
2023-03-11T00:59:10.729Z,610.00
2023-03-11T00:59:40.717Z,610.00
2023-03-11T01:00:10.706Z,611.00
2023-03-11T01:00:40.716Z,610.00
2023-03-11T01:01:10.759Z,608.00
2023-03-11T01:01:40.831Z,610.00
2023-03-11T01:02:10.853Z,613.00
2023-03-11T01:02:40.835Z,614.00
2023-03-11T01:03:10.920Z,608.00
2023-03-11T01:03:40.930Z,612.00
2023-03-11T01:04:10.991Z,612.00
2023-03-11T01:04:41.105Z,611.00
2023-03-11T01:05:11.040Z,611.00
2023-03-11T01:05:41.046Z,613.00
2023-03-11T01:06:11.037Z,615.00
2023-03-11T01:06:45.510Z,616.00
2023-03-11T01:07:11.468Z,615.00
2023-03-11T01:07:41.120Z,613.00
2023-03-11T01:08:11.161Z,613.00
2023-03-11T01:08:41.163Z,614.00
2023-03-11T01:09:11.175Z,615.00
2023-03-11T01:09:41.179Z,612.00
2023-03-11T01:10:11.193Z,614.00
2023-03-11T01:10:41.201Z,615.00
2023-03-11T01:11:11.202Z,614.00
2023-03-11T01:11:41.202Z,613.00
2023-03-11T01:12:11.221Z,614.00
2023-03-11T01:12:41.228Z,616.00
2023-03-11T01:13:11.237Z,617.00
2023-03-11T01:13:41.343Z,617.00
2023-03-11T01:14:11.426Z,616.00
2023-03-11T01:14:41.510Z,617.00
2023-03-11T01:15:11.595Z,614.00
2023-03-11T01:15:41.686Z,613.00
2023-03-11T01:16:11.784Z,611.00
2023-03-11T01:16:41.756Z,616.00
2023-03-11T01:17:11.853Z,608.00
2023-03-11T01:17:41.925Z,612.00
2023-03-11T01:18:12.026Z,611.00
2023-03-11T01:18:42.123Z,612.00
2023-03-11T01:19:12.208Z,609.00
2023-03-11T01:19:42.293Z,612.00
2023-03-11T01:20:12.395Z,611.00
2023-03-11T01:20:42.462Z,612.00
2023-03-11T01:21:12.538Z,613.00
2023-03-11T01:21:42.627Z,610.00
2023-03-11T01:22:12.742Z,614.00
2023-03-11T01:22:42.810Z,616.00
2023-03-11T01:23:12.889Z,614.00
2023-03-11T01:23:43.008Z,616.00
2023-03-11T01:24:13.001Z,641.00
2023-03-11T01:24:43.012Z,621.00
2023-03-11T01:25:13.024Z,611.00
2023-03-11T01:25:43.050Z,612.00
2023-03-11T01:26:13.054Z,610.00
2023-03-11T01:26:43.068Z,608.00
2023-03-11T01:27:13.085Z,608.00
2023-03-11T01:27:43.110Z,605.00
2023-03-11T01:28:13.174Z,608.00
2023-03-11T01:28:43.178Z,607.00
2023-03-11T01:29:13.186Z,607.00
2023-03-11T01:29:43.203Z,611.00
2023-03-11T01:30:13.209Z,610.00
2023-03-11T01:30:43.306Z,610.00
2023-03-11T01:31:13.299Z,610.00
2023-03-11T01:31:43.294Z,609.00
2023-03-11T01:32:13.390Z,609.00
2023-03-11T01:32:43.470Z,608.00
2023-03-11T01:33:13.486Z,607.00
2023-03-11T01:33:43.489Z,609.00
2023-03-11T01:34:13.495Z,604.00
2023-03-11T01:34:43.496Z,607.00
2023-03-11T01:35:13.503Z,606.00
2023-03-11T01:35:43.548Z,607.00
2023-03-11T01:36:13.535Z,606.00
2023-03-11T01:36:43.556Z,607.00
2023-03-11T01:37:13.545Z,607.00
2023-03-11T01:37:43.585Z,606.00
2023-03-11T01:38:13.556Z,604.00
2023-03-11T01:38:43.606Z,603.00
2023-03-11T01:39:13.600Z,604.00
2023-03-11T01:39:43.605Z,606.00
2023-03-11T01:40:13.605Z,606.00
2023-03-11T01:40:43.611Z,606.00
2023-03-11T01:41:13.623Z,604.00
2023-03-11T01:41:43.647Z,608.00
2023-03-11T01:42:13.659Z,604.00
2023-03-11T01:42:43.663Z,601.00
2023-03-11T01:43:13.678Z,604.00
2023-03-11T01:43:43.689Z,605.00
2023-03-11T01:44:13.700Z,603.00
2023-03-11T01:44:43.714Z,603.00
2023-03-11T01:45:13.715Z,602.00
2023-03-11T01:45:43.719Z,598.00
2023-03-11T01:46:13.892Z,595.00
2023-03-11T01:46:43.832Z,596.00
2023-03-11T01:47:13.843Z,595.00
2023-03-11T01:47:43.843Z,596.00
2023-03-11T01:48:13.844Z,599.00
2023-03-11T01:48:43.850Z,596.00
2023-03-11T01:49:13.858Z,597.00
2023-03-11T01:49:43.862Z,597.00
2023-03-11T01:50:13.877Z,598.00
2023-03-11T01:50:43.889Z,602.00
2023-03-11T01:51:13.882Z,604.00
2023-03-11T01:51:43.892Z,603.00
2023-03-11T01:52:13.901Z,599.00
2023-03-11T01:52:43.905Z,600.00
2023-03-11T01:53:13.967Z,602.00
2023-03-11T01:53:43.948Z,602.00
2023-03-11T01:54:13.970Z,600.00
2023-03-11T01:54:43.976Z,602.00
2023-03-11T01:55:13.986Z,604.00
2023-03-11T01:55:43.974Z,602.00
2023-03-11T01:56:14.000Z,601.00
2023-03-11T01:56:44.020Z,598.00
2023-03-11T01:57:14.021Z,598.00
2023-03-11T01:57:44.021Z,600.00
2023-03-11T01:58:14.029Z,597.00
2023-03-11T01:58:44.041Z,599.00
2023-03-11T01:59:14.048Z,598.00
2023-03-11T01:59:44.043Z,598.00
2023-03-11T02:00:14.048Z,600.00
2023-03-11T02:00:44.056Z,602.00
2023-03-11T02:01:14.063Z,598.00
2023-03-11T02:01:44.174Z,597.00
2023-03-11T02:02:14.165Z,598.00
2023-03-11T02:02:44.195Z,596.00
2023-03-11T02:03:14.303Z,598.00
2023-03-11T02:03:44.269Z,599.00
2023-03-11T02:04:14.257Z,602.00
2023-03-11T02:04:44.255Z,599.00
2023-03-11T02:05:14.280Z,597.00
2023-03-11T02:05:44.300Z,596.00
2023-03-11T02:06:14.302Z,597.00
2023-03-11T02:06:44.303Z,598.00
2023-03-11T02:07:14.304Z,600.00
2023-03-11T02:07:44.328Z,601.00
2023-03-11T02:08:14.398Z,602.00
2023-03-11T02:08:44.401Z,600.00
2023-03-11T02:09:14.382Z,601.00
2023-03-11T02:09:44.398Z,599.00
2023-03-11T02:10:14.408Z,609.00
2023-03-11T02:10:44.410Z,596.00
2023-03-11T02:11:14.412Z,593.00
2023-03-11T02:11:44.435Z,594.00
2023-03-11T02:12:14.429Z,594.00
2023-03-11T02:12:44.434Z,595.00
2023-03-11T02:13:14.438Z,594.00
2023-03-11T02:13:44.533Z,597.00
2023-03-11T02:14:14.623Z,595.00
2023-03-11T02:14:44.710Z,597.00
2023-03-11T02:15:14.792Z,598.00
2023-03-11T02:15:44.887Z,597.00
2023-03-11T02:16:15.057Z,598.00
2023-03-11T02:16:45.077Z,597.00
2023-03-11T02:17:15.053Z,595.00
2023-03-11T02:17:45.173Z,597.00
2023-03-11T02:18:15.240Z,598.00
2023-03-11T02:18:45.323Z,597.00
2023-03-11T02:19:15.414Z,598.00
2023-03-11T02:19:45.499Z,598.00
2023-03-11T02:20:15.580Z,598.00
2023-03-11T02:20:45.674Z,598.00
2023-03-11T02:21:15.765Z,597.00
2023-03-11T02:21:45.862Z,596.00
2023-03-11T02:22:15.941Z,597.00
2023-03-11T02:22:46.027Z,598.00
2023-03-11T02:23:16.132Z,598.00
2023-03-11T02:23:46.170Z,598.00
2023-03-11T02:24:16.173Z,598.00
2023-03-11T02:24:46.204Z,597.00
2023-03-11T02:25:16.269Z,598.00
2023-03-11T02:25:46.281Z,597.00
2023-03-11T02:26:16.348Z,602.00
2023-03-11T02:26:46.349Z,600.00
2023-03-11T02:27:16.355Z,599.00
2023-03-11T02:27:46.376Z,600.00
2023-03-11T02:28:16.371Z,600.00
2023-03-11T02:28:46.379Z,601.00
2023-03-11T02:29:16.397Z,602.00
2023-03-11T02:29:46.401Z,602.00
2023-03-11T02:30:16.447Z,601.00
2023-03-11T02:30:46.458Z,602.00
2023-03-11T02:31:16.505Z,601.00
2023-03-11T02:31:46.555Z,600.00
2023-03-11T02:32:16.588Z,600.00
2023-03-11T02:32:46.601Z,599.00
2023-03-11T02:33:16.636Z,601.00
2023-03-11T02:33:46.680Z,598.00
2023-03-11T02:34:16.734Z,600.00
2023-03-11T02:34:46.751Z,601.00
2023-03-11T02:35:16.758Z,598.00
2023-03-11T02:35:46.831Z,597.00
2023-03-11T02:36:16.830Z,596.00
2023-03-11T02:36:46.849Z,592.00
2023-03-11T02:37:16.858Z,592.00
2023-03-11T02:37:46.865Z,594.00
2023-03-11T02:38:16.866Z,595.00
2023-03-11T02:38:46.897Z,597.00
2023-03-11T02:39:16.930Z,595.00
2023-03-11T02:39:46.900Z,594.00
2023-03-11T02:40:16.905Z,595.00
2023-03-11T02:40:46.903Z,595.00
2023-03-11T02:41:16.973Z,596.00
2023-03-11T02:41:46.980Z,594.00
2023-03-11T02:42:16.986Z,592.00
2023-03-11T02:42:47.018Z,590.00
2023-03-11T02:43:17.034Z,592.00
2023-03-11T02:43:47.038Z,592.00
2023-03-11T02:44:17.049Z,593.00
2023-03-11T02:44:47.064Z,595.00
2023-03-11T02:45:17.075Z,593.00
2023-03-11T02:45:47.164Z,592.00
2023-03-11T02:46:17.171Z,592.00
2023-03-11T02:46:47.207Z,592.00
2023-03-11T02:47:17.213Z,593.00
2023-03-11T02:47:47.230Z,592.00
2023-03-11T02:48:17.223Z,590.00
2023-03-11T02:48:47.218Z,590.00
2023-03-11T02:49:17.267Z,589.00
2023-03-11T02:49:47.270Z,590.00
2023-03-11T02:50:17.282Z,587.00
2023-03-11T02:50:47.296Z,587.00
2023-03-11T02:51:17.300Z,584.00
2023-03-11T02:51:47.351Z,585.00
2023-03-11T02:52:17.331Z,585.00
2023-03-11T02:52:47.424Z,587.00
2023-03-11T02:53:17.452Z,591.00
2023-03-11T02:53:47.461Z,589.00
2023-03-11T02:54:17.463Z,589.00
2023-03-11T02:54:47.532Z,589.00
2023-03-11T02:55:17.518Z,588.00
2023-03-11T02:55:47.539Z,588.00
2023-03-11T02:56:17.540Z,590.00
2023-03-11T02:56:47.560Z,589.00
2023-03-11T02:57:17.612Z,591.00
2023-03-11T02:57:47.565Z,591.00
2023-03-11T02:58:17.581Z,591.00
2023-03-11T02:58:47.592Z,590.00
2023-03-11T02:59:17.590Z,590.00
2023-03-11T02:59:47.603Z,591.00
2023-03-11T03:00:17.628Z,595.00
2023-03-11T03:00:47.668Z,595.00
2023-03-11T03:01:17.767Z,591.00
2023-03-11T03:01:47.762Z,589.00
2023-03-11T03:02:17.754Z,584.00
2023-03-11T03:02:47.765Z,587.00
2023-03-11T03:03:17.767Z,585.00
2023-03-11T03:03:47.815Z,587.00
2023-03-11T03:04:17.860Z,585.00
2023-03-11T03:04:47.883Z,588.00
2023-03-11T03:05:17.885Z,587.00
2023-03-11T03:05:47.920Z,590.00
2023-03-11T03:06:17.925Z,590.00
2023-03-11T03:06:47.937Z,586.00
2023-03-11T03:07:17.954Z,584.00
2023-03-11T03:07:47.978Z,585.00
2023-03-11T03:08:17.986Z,584.00
2023-03-11T03:08:47.976Z,585.00
2023-03-11T03:09:17.988Z,586.00
2023-03-11T03:09:47.993Z,590.00
2023-03-11T03:10:18.038Z,591.00
2023-03-11T03:10:48.029Z,589.00
2023-03-11T03:11:18.033Z,584.00
2023-03-11T03:11:48.040Z,578.00
2023-03-11T03:12:18.051Z,579.00
2023-03-11T03:12:48.070Z,577.00
2023-03-11T03:13:18.094Z,580.00
2023-03-11T03:13:48.076Z,586.00
2023-03-11T03:14:18.158Z,585.00
2023-03-11T03:14:48.246Z,583.00
2023-03-11T03:15:18.328Z,581.00
2023-03-11T03:15:48.416Z,583.00
2023-03-11T03:16:18.546Z,582.00
2023-03-11T03:16:48.634Z,580.00
2023-03-11T03:17:18.668Z,580.00
2023-03-11T03:17:48.739Z,580.00
2023-03-11T03:18:18.833Z,581.00
2023-03-11T03:18:48.910Z,582.00
2023-03-11T03:19:18.999Z,582.00
2023-03-11T03:19:49.072Z,588.00
2023-03-11T03:20:19.165Z,587.00
2023-03-11T03:20:49.251Z,585.00
2023-03-11T03:21:19.347Z,589.00
2023-03-11T03:21:49.417Z,587.00
2023-03-11T03:22:19.491Z,589.00
2023-03-11T03:22:49.590Z,586.00
2023-03-11T03:23:19.678Z,586.00
2023-03-11T03:23:49.778Z,587.00
2023-03-11T03:24:19.808Z,586.00
2023-03-11T03:24:49.800Z,585.00
2023-03-11T03:25:19.837Z,585.00
2023-03-11T03:25:49.826Z,584.00
2023-03-11T03:26:19.843Z,584.00
2023-03-11T03:26:49.828Z,583.00
2023-03-11T03:27:19.865Z,581.00
2023-03-11T03:27:49.869Z,580.00
2023-03-11T03:28:19.875Z,580.00
2023-03-11T03:28:49.886Z,580.00
2023-03-11T03:29:19.914Z,580.00
2023-03-11T03:29:49.917Z,578.00
2023-03-11T03:30:19.926Z,579.00
2023-03-11T03:30:49.940Z,577.00
2023-03-11T03:31:19.999Z,577.00
2023-03-11T03:31:50.037Z,578.00
2023-03-11T03:32:20.119Z,578.00
2023-03-11T03:32:50.174Z,582.00
2023-03-11T03:33:20.180Z,583.00
2023-03-11T03:33:50.177Z,583.00
2023-03-11T03:34:20.196Z,583.00
2023-03-11T03:34:50.213Z,586.00
2023-03-11T03:35:20.228Z,589.00
2023-03-11T03:35:50.315Z,585.00
2023-03-11T03:36:20.268Z,585.00
2023-03-11T03:36:50.277Z,584.00
2023-03-11T03:37:20.298Z,583.00
2023-03-11T03:37:50.397Z,588.00
2023-03-11T03:38:20.435Z,583.00
2023-03-11T03:38:50.459Z,579.00
2023-03-11T03:39:20.463Z,578.00
2023-03-11T03:39:50.469Z,577.00
2023-03-11T03:40:20.496Z,578.00
2023-03-11T03:40:50.562Z,579.00
2023-03-11T03:41:20.541Z,579.00
2023-03-11T03:41:50.554Z,580.00
2023-03-11T03:42:20.577Z,581.00
2023-03-11T03:42:50.592Z,577.00
2023-03-11T03:43:20.596Z,577.00
2023-03-11T03:43:50.609Z,579.00
2023-03-11T03:44:20.619Z,577.00
2023-03-11T03:44:50.628Z,579.00
2023-03-11T03:45:20.640Z,580.00
2023-03-11T03:45:50.659Z,577.00
2023-03-11T03:46:20.723Z,575.00
2023-03-11T03:46:50.717Z,577.00
2023-03-11T03:47:20.722Z,575.00
2023-03-11T03:47:50.725Z,577.00
2023-03-11T03:48:20.736Z,578.00
2023-03-11T03:48:50.747Z,580.00
2023-03-11T03:49:20.751Z,581.00
2023-03-11T03:49:50.784Z,584.00
2023-03-11T03:50:20.780Z,584.00
2023-03-11T03:50:50.777Z,581.00
2023-03-11T03:51:20.788Z,581.00
2023-03-11T03:51:50.793Z,583.00
2023-03-11T03:52:20.805Z,576.00
2023-03-11T03:52:50.800Z,579.00
2023-03-11T03:53:20.828Z,581.00
2023-03-11T03:53:50.848Z,586.00
2023-03-11T03:54:20.848Z,578.00
2023-03-11T03:54:50.872Z,580.00
2023-03-11T03:55:20.875Z,577.00
2023-03-11T03:55:50.938Z,578.00
2023-03-11T03:56:20.981Z,577.00
2023-03-11T03:56:50.955Z,577.00
2023-03-11T03:57:20.969Z,578.00
2023-03-11T03:57:50.984Z,579.00
2023-03-11T03:58:20.997Z,576.00
2023-03-11T03:58:51.015Z,577.00
2023-03-11T03:59:21.012Z,577.00
2023-03-11T03:59:51.035Z,576.00
2023-03-11T04:00:21.034Z,578.00
2023-03-11T04:00:51.042Z,577.00
2023-03-11T04:01:21.070Z,578.00
2023-03-11T04:01:51.120Z,576.00
2023-03-11T04:02:21.186Z,575.00
2023-03-11T04:02:51.231Z,576.00
2023-03-11T04:03:21.276Z,575.00
2023-03-11T04:03:51.260Z,577.00
2023-03-11T04:04:21.263Z,587.00
2023-03-11T04:04:51.269Z,581.00
2023-03-11T04:05:21.312Z,578.00
2023-03-11T04:05:51.335Z,578.00
2023-03-11T04:06:21.340Z,583.00
2023-03-11T04:06:51.348Z,586.00
2023-03-11T04:07:21.352Z,585.00
2023-03-11T04:07:51.356Z,586.00
2023-03-11T04:08:21.369Z,581.00
2023-03-11T04:08:51.381Z,580.00
2023-03-11T04:09:21.397Z,578.00
2023-03-11T04:09:51.404Z,575.00
2023-03-11T04:10:21.407Z,579.00
2023-03-11T04:10:51.424Z,575.00
2023-03-11T04:11:21.605Z,575.00
2023-03-11T04:11:51.511Z,576.00
2023-03-11T04:12:21.495Z,576.00
2023-03-11T04:12:51.508Z,574.00
2023-03-11T04:13:21.507Z,575.00
2023-03-11T04:13:51.627Z,574.00
2023-03-11T04:14:21.612Z,574.00
2023-03-11T04:14:51.679Z,574.00
2023-03-11T04:15:21.766Z,574.00
2023-03-11T04:15:51.860Z,577.00
2023-03-11T04:16:22.019Z,578.00
2023-03-11T04:16:52.117Z,577.00
2023-03-11T04:17:22.082Z,578.00
2023-03-11T04:17:52.159Z,580.00
2023-03-11T04:18:22.223Z,579.00
2023-03-11T04:18:52.359Z,575.00
2023-03-11T04:19:22.323Z,575.00
2023-03-11T04:19:52.386Z,574.00
2023-03-11T04:20:22.471Z,574.00
2023-03-11T04:20:52.553Z,574.00
2023-03-11T04:21:22.654Z,574.00
2023-03-11T04:21:52.634Z,575.00
2023-03-11T04:22:22.714Z,576.00
2023-03-11T04:22:52.790Z,575.00
2023-03-11T04:23:22.897Z,576.00
2023-03-11T04:23:52.877Z,576.00
2023-03-11T04:24:22.903Z,575.00
2023-03-11T04:24:52.902Z,577.00
2023-03-11T04:25:22.931Z,578.00
2023-03-11T04:25:52.941Z,578.00
2023-03-11T04:26:22.981Z,575.00
2023-03-11T04:26:52.988Z,575.00
2023-03-11T04:27:23.022Z,576.00
2023-03-11T04:27:53.013Z,574.00
2023-03-11T04:28:23.042Z,576.00
2023-03-11T04:28:53.045Z,576.00
2023-03-11T04:29:23.041Z,574.00
2023-03-11T04:29:53.043Z,572.00
2023-03-11T04:30:23.056Z,573.00
2023-03-11T04:30:53.200Z,574.00
2023-03-11T04:31:23.263Z,569.00
2023-03-11T04:31:53.153Z,566.00
2023-03-11T04:32:23.198Z,569.00
2023-03-11T04:32:53.187Z,568.00
2023-03-11T04:33:23.194Z,567.00
2023-03-11T04:33:53.205Z,568.00
2023-03-11T04:34:23.212Z,570.00
2023-03-11T04:34:53.256Z,568.00
2023-03-11T04:35:23.353Z,569.00
2023-03-11T04:35:53.313Z,571.00
2023-03-11T04:36:23.327Z,571.00
2023-03-11T04:36:53.331Z,569.00
2023-03-11T04:37:23.336Z,571.00
2023-03-11T04:37:53.345Z,572.00
2023-03-11T04:38:23.350Z,571.00
2023-03-11T04:38:53.371Z,573.00
2023-03-11T04:39:23.376Z,576.00
2023-03-11T04:39:53.409Z,574.00
2023-03-11T04:40:23.393Z,575.00
2023-03-11T04:40:53.400Z,575.00
2023-03-11T04:41:23.410Z,575.00
2023-03-11T04:41:53.417Z,572.00
2023-03-11T04:42:23.420Z,570.00
2023-03-11T04:42:53.473Z,572.00
2023-03-11T04:43:23.445Z,570.00
2023-03-11T04:43:53.456Z,572.00
2023-03-11T04:44:23.455Z,574.00
2023-03-11T04:44:53.477Z,574.00
2023-03-11T04:45:23.493Z,574.00
2023-03-11T04:45:53.574Z,574.00
2023-03-11T04:46:23.602Z,573.00
2023-03-11T04:46:53.605Z,574.00
2023-03-11T04:47:23.611Z,575.00
2023-03-11T04:47:53.617Z,571.00
2023-03-11T04:48:23.677Z,572.00
2023-03-11T04:48:53.664Z,571.00
2023-03-11T04:49:23.666Z,572.00
2023-03-11T04:49:53.682Z,572.00
2023-03-11T04:50:23.681Z,571.00
2023-03-11T04:50:53.689Z,571.00
2023-03-11T04:51:23.684Z,570.00
2023-03-11T04:51:53.700Z,577.00
2023-03-11T04:52:23.704Z,572.00
2023-03-11T04:52:53.712Z,573.00
2023-03-11T04:53:23.742Z,571.00
2023-03-11T04:53:53.781Z,569.00
2023-03-11T04:54:23.763Z,571.00
2023-03-11T04:54:53.761Z,571.00
2023-03-11T04:55:23.783Z,571.00
2023-03-11T04:55:53.804Z,572.00
2023-03-11T04:56:23.808Z,572.00
2023-03-11T04:56:53.895Z,569.00
2023-03-11T04:57:23.881Z,572.00
2023-03-11T04:57:53.927Z,573.00
2023-03-11T04:58:23.977Z,573.00
2023-03-11T04:58:53.974Z,570.00
2023-03-11T04:59:23.978Z,571.00
2023-03-11T04:59:53.993Z,571.00
2023-03-11T05:00:24.054Z,569.00
2023-03-11T05:00:54.073Z,570.00
2023-03-11T05:01:24.129Z,569.00
2023-03-11T05:01:54.116Z,571.00
2023-03-11T05:02:24.144Z,570.00
2023-03-11T05:02:54.253Z,571.00
2023-03-11T05:03:24.263Z,572.00
2023-03-11T05:03:54.283Z,571.00
2023-03-11T05:04:24.328Z,573.00
2023-03-11T05:04:54.428Z,569.00
2023-03-11T05:05:24.351Z,569.00
2023-03-11T05:05:54.349Z,569.00
2023-03-11T05:06:24.352Z,567.00
2023-03-11T05:06:54.373Z,566.00
2023-03-11T05:07:24.419Z,563.00
2023-03-11T05:07:54.477Z,567.00
2023-03-11T05:08:24.478Z,565.00
2023-03-11T05:08:54.461Z,562.00
2023-03-11T05:09:24.468Z,561.00
2023-03-11T05:09:54.492Z,560.00
2023-03-11T05:10:24.510Z,561.00
2023-03-11T05:10:54.531Z,561.00
2023-03-11T05:11:24.511Z,563.00
2023-03-11T05:11:54.521Z,562.00
2023-03-11T05:12:24.532Z,563.00
2023-03-11T05:12:54.544Z,563.00
2023-03-11T05:13:24.568Z,564.00
2023-03-11T05:13:54.582Z,563.00
2023-03-11T05:14:24.642Z,562.00
2023-03-11T05:14:54.712Z,562.00
2023-03-11T05:15:24.807Z,561.00
2023-03-11T05:15:54.973Z,563.00
2023-03-11T05:16:24.962Z,566.00
2023-03-11T05:16:55.035Z,563.00
2023-03-11T05:17:25.057Z,562.00
2023-03-11T05:17:55.044Z,561.00
2023-03-11T05:18:25.133Z,559.00
2023-03-11T05:18:55.215Z,561.00
2023-03-11T05:19:25.288Z,563.00
2023-03-11T05:19:55.405Z,562.00
2023-03-11T05:20:25.378Z,565.00
2023-03-11T05:20:55.467Z,562.00
2023-03-11T05:21:25.549Z,564.00
2023-03-11T05:21:55.629Z,564.00
2023-03-11T05:22:25.728Z,564.00
2023-03-11T05:22:55.803Z,566.00
2023-03-11T05:23:25.900Z,567.00
2023-03-11T05:23:55.899Z,569.00
2023-03-11T05:24:25.902Z,570.00
2023-03-11T05:24:55.928Z,573.00
2023-03-11T05:25:25.929Z,568.00
2023-03-11T05:25:55.935Z,570.00
2023-03-11T05:26:25.957Z,568.00
2023-03-11T05:26:55.961Z,567.00
2023-03-11T05:27:26.190Z,569.00
2023-03-11T05:27:56.058Z,572.00
2023-03-11T05:28:26.070Z,568.00
2023-03-11T05:28:56.071Z,568.00
2023-03-11T05:29:26.142Z,569.00
2023-03-11T05:29:56.126Z,568.00
2023-03-11T05:30:26.139Z,568.00
2023-03-11T05:30:56.205Z,566.00
2023-03-11T05:31:26.284Z,564.00
2023-03-11T05:31:56.276Z,565.00
2023-03-11T05:32:26.452Z,565.00
2023-03-11T05:32:56.415Z,566.00
2023-03-11T05:33:26.440Z,566.00
2023-03-11T05:33:56.452Z,566.00
2023-03-11T05:34:26.455Z,566.00
2023-03-11T05:34:56.479Z,569.00
2023-03-11T05:35:26.529Z,568.00
2023-03-11T05:35:56.539Z,567.00
2023-03-11T05:36:26.552Z,568.00
2023-03-11T05:36:56.558Z,566.00
2023-03-11T05:37:26.569Z,567.00
2023-03-11T05:37:56.572Z,568.00
2023-03-11T05:38:26.593Z,567.00
2023-03-11T05:38:56.606Z,567.00
2023-03-11T05:39:26.623Z,564.00
2023-03-11T05:39:56.652Z,571.00
2023-03-11T05:40:26.669Z,564.00
2023-03-11T05:40:56.656Z,564.00
2023-03-11T05:41:26.667Z,562.00
2023-03-11T05:41:56.679Z,560.00
2023-03-11T05:42:26.683Z,563.00
2023-03-11T05:42:56.697Z,563.00
2023-03-11T05:43:26.705Z,567.00
2023-03-11T05:43:56.713Z,567.00
2023-03-11T05:44:26.757Z,568.00
2023-03-11T05:44:56.802Z,567.00
2023-03-11T05:45:26.788Z,568.00
2023-03-11T05:45:56.846Z,566.00
2023-03-11T05:46:26.943Z,566.00
2023-03-11T05:46:57.070Z,565.00
2023-03-11T05:47:26.948Z,564.00
2023-03-11T05:47:56.969Z,563.00
2023-03-11T05:48:26.968Z,564.00
2023-03-11T05:48:56.977Z,558.00
2023-03-11T05:49:26.982Z,560.00
2023-03-11T05:49:56.994Z,560.00
2023-03-11T05:50:27.021Z,559.00
2023-03-11T05:50:57.048Z,559.00
2023-03-11T05:51:27.063Z,557.00
2023-03-11T05:51:58.768Z,558.00
2023-03-11T05:52:27.089Z,557.00
2023-03-11T05:52:57.106Z,558.00
2023-03-11T05:53:27.124Z,560.00
2023-03-11T05:53:57.152Z,558.00
2023-03-11T05:54:27.180Z,560.00
2023-03-11T05:54:57.180Z,556.00
2023-03-11T05:55:27.191Z,557.00
2023-03-11T05:55:57.264Z,558.00
2023-03-11T05:56:27.267Z,557.00
2023-03-11T05:56:57.270Z,558.00
2023-03-11T05:57:27.275Z,558.00
2023-03-11T05:57:57.320Z,559.00
2023-03-11T05:58:27.426Z,560.00
2023-03-11T05:58:57.441Z,557.00
2023-03-11T05:59:27.444Z,556.00
2023-03-11T05:59:57.447Z,558.00
2023-03-11T06:00:27.482Z,555.00
2023-03-11T06:00:57.489Z,555.00
2023-03-11T06:01:27.509Z,559.00
2023-03-11T06:01:57.507Z,559.00
2023-03-11T06:02:27.508Z,559.00
2023-03-11T06:02:57.536Z,559.00
2023-03-11T06:03:27.555Z,558.00
2023-03-11T06:03:57.698Z,558.00
2023-03-11T06:04:27.718Z,560.00
2023-03-11T06:04:57.920Z,555.00
2023-03-11T06:05:27.887Z,555.00
2023-03-11T06:05:57.791Z,555.00
2023-03-11T06:06:27.802Z,554.00
2023-03-11T06:06:57.797Z,556.00
2023-03-11T06:07:27.884Z,552.00
2023-03-11T06:07:57.871Z,555.00
2023-03-11T06:08:27.896Z,555.00
2023-03-11T06:08:57.960Z,553.00
2023-03-11T06:09:27.980Z,552.00
2023-03-11T06:09:57.991Z,564.00
2023-03-11T06:10:28.008Z,567.00
2023-03-11T06:10:58.012Z,563.00
2023-03-11T06:11:28.075Z,562.00
2023-03-11T06:11:58.074Z,565.00
2023-03-11T06:12:28.069Z,564.00
2023-03-11T06:12:58.077Z,561.00
2023-03-11T06:13:28.078Z,564.00
2023-03-11T06:13:58.174Z,566.00
2023-03-11T06:14:28.272Z,563.00